Time;durP1;ratioP1;P1;durP2;ratioP2;P2;SDS_P1;SDS_P2;PMS_P1;PMS_P2;Temp;Humidity;BMP_temperature;BMP_pressure;BME280_temperature;BME280_humidity;BME280_pressure;Samples;Min_cycle;Max_cycle;Signal;HPM_P1;HPM_P2
2023/04/15 00:01:24;;;;;;;0.93;0.93;;;8.80;81.20;;;;;;5052921;28;20199;-69
2023/04/15 00:03:54;;;;;;;3.77;1.60;;;8.50;82.20;;;;;;5054575;28;20911;-71
2023/04/15 00:06:20;;;;;;;2.50;1.30;;;8.30;83.70;;;;;;5051872;28;20196;-69
2023/04/15 00:08:47;;;;;;;2.27;1.47;;;8.10;84.60;;;;;;5056138;28;20199;-69
2023/04/15 00:11:13;;;;;;;1.40;1.10;;;8.10;85.60;;;;;;5055085;28;20266;-69
2023/04/15 00:13:40;;;;;;;1.00;1.00;;;8.20;85.70;;;;;;5057348;28;20179;-69
2023/04/15 00:16:07;;;;;;;1.57;1.47;;;8.30;85.20;;;;;;5051883;28;20781;-70
2023/04/15 00:18:33;;;;;;;1.63;1.53;;;8.40;85.20;;;;;;5057346;28;20183;-70
2023/04/15 00:20:59;;;;;;;1.87;1.47;;;8.50;85.10;;;;;;5056235;28;20246;-70
2023/04/15 00:23:25;;;;;;;1.90;1.30;;;8.50;85.80;;;;;;5054334;28;20179;-69
2023/04/15 00:25:51;;;;;;;1.23;1.20;;;8.40;85.80;;;;;;5053699;28;20179;-69
2023/04/15 00:28:17;;;;;;;2.23;1.20;;;8.30;85.70;;;;;;5053493;28;20186;-68
2023/04/15 00:30:44;;;;;;;1.93;1.40;;;8.30;85.30;;;;;;5053241;28;20208;-69
2023/04/15 00:33:11;;;;;;;1.30;1.30;;;8.50;84.70;;;;;;5053720;28;20259;-69
2023/04/15 00:35:37;;;;;;;1.50;1.10;;;8.60;84.80;;;;;;5054783;28;20182;-69
2023/04/15 00:38:03;;;;;;;1.43;1.37;;;8.60;84.80;;;;;;5053760;28;20190;-70
2023/04/15 00:40:29;;;;;;;2.10;1.80;;;8.70;84.80;;;;;;5055976;28;20183;-69
2023/04/15 00:42:55;;;;;;;1.50;1.50;;;8.80;84.90;;;;;;5067035;28;20251;-69
2023/04/15 00:45:21;;;;;;;1.53;1.53;;;8.70;85.50;;;;;;5052235;28;20191;-69
2023/04/15 00:47:47;;;;;;;2.37;1.97;;;8.70;85.70;;;;;;5054945;28;20190;-69
2023/04/15 00:50:12;;;;;;;2.90;1.90;;;8.70;84.90;;;;;;5055088;28;20175;-69
2023/04/15 00:52:39;;;;;;;1.40;1.30;;;8.80;84.90;;;;;;5054033;28;20676;-69
2023/04/15 00:55:06;;;;;;;1.17;1.17;;;8.80;85.00;;;;;;5054017;28;20556;-69
2023/04/15 00:57:32;;;;;;;2.80;1.57;;;8.80;85.60;;;;;;5053403;28;20225;-70
2023/04/15 00:59:58;;;;;;;1.57;1.47;;;8.60;85.40;;;;;;5057267;28;20179;-70
2023/04/15 01:02:23;;;;;;;2.80;1.80;;;8.70;85.30;;;;;;5053406;28;20188;-70
2023/04/15 01:04:49;;;;;;;5.90;2.03;;;8.70;85.50;;;;;;5053284;28;20232;-70
2023/04/15 01:07:16;;;;;;;3.30;1.63;;;8.70;85.20;;;;;;5052322;28;20182;-70
2023/04/15 01:09:42;;;;;;;1.20;1.20;;;8.70;84.60;;;;;;5050013;28;20184;-71
2023/04/15 01:12:10;;;;;;;1.03;1.03;;;8.70;84.50;;;;;;5049561;28;20183;-70
2023/04/15 01:14:36;;;;;;;1.37;1.27;;;8.60;85.50;;;;;;5054665;28;20175;-70
2023/04/15 01:17:02;;;;;;;3.63;2.17;;;8.50;86.40;;;;;;5055466;28;20226;-70
2023/04/15 01:19:28;;;;;;;1.40;1.40;;;8.40;87.30;;;;;;5052570;28;20179;-70
2023/04/15 01:21:55;;;;;;;3.10;1.23;;;8.40;88.10;;;;;;5050452;28;20211;-70
2023/04/15 01:24:22;;;;;;;2.10;1.30;;;8.30;87.10;;;;;;5051974;28;20186;-70
2023/04/15 01:26:49;;;;;;;1.40;1.40;;;8.40;86.40;;;;;;5050490;28;20223;-70
2023/04/15 01:29:14;;;;;;;3.07;1.13;;;8.40;86.50;;;;;;5054739;28;20677;-70
2023/04/15 01:31:48;;;;;;;1.60;1.60;;;8.40;86.30;;;;;;5083316;28;20195;-70
2023/04/15 01:34:14;;;;;;;2.07;1.03;;;8.50;85.30;;;;;;5049213;28;20195;-70
2023/04/15 01:36:39;;;;;;;1.43;1.40;;;8.50;85.30;;;;;;5051875;28;20221;-70
2023/04/15 01:39:06;;;;;;;0.83;0.83;;;8.50;85.20;;;;;;5051880;28;20270;-70
2023/04/15 01:41:31;;;;;;;1.10;1.10;;;8.50;84.80;;;;;;5050595;28;20186;-70
2023/04/15 01:43:57;;;;;;;1.40;1.27;;;8.40;84.60;;;;;;5057740;28;20195;-70
2023/04/15 01:46:23;;;;;;;2.10;1.33;;;8.50;84.50;;;;;;5054706;28;20194;-69
2023/04/15 01:48:49;;;;;;;0.90;0.90;;;8.30;86.10;;;;;;5051342;28;20236;-69
2023/04/15 01:51:15;;;;;;;1.37;1.23;;;8.30;86.60;;;;;;5052897;28;20782;-69
2023/04/15 01:53:41;;;;;;;0.97;0.77;;;8.20;87.10;;;;;;5049561;28;20278;-69
2023/04/15 01:56:06;;;;;;;1.07;1.00;;;8.10;87.80;;;;;;5051859;28;20299;-70
2023/04/15 01:58:32;;;;;;;2.70;1.30;;;7.80;88.30;;;;;;5049935;28;20187;-69
2023/04/15 02:00:58;;;;;;;1.37;1.27;;;7.70;88.30;;;;;;5053592;28;20254;-69
2023/04/15 02:03:24;;;;;;;2.37;0.80;;;7.60;88.40;;;;;;5050636;28;20355;-69
2023/04/15 02:05:50;;;;;;;0.90;0.90;;;7.50;88.70;;;;;;5053921;28;20566;-70
2023/04/15 02:08:16;;;;;;;0.80;0.80;;;7.50;89.30;;;;;;5049550;28;20194;-69
2023/04/15 02:10:42;;;;;;;1.00;1.00;;;7.60;89.20;;;;;;5051712;28;20191;-69
2023/04/15 02:13:08;;;;;;;2.53;1.07;;;7.70;89.40;;;;;;5048227;28;20190;-70
2023/04/15 02:15:34;;;;;;;1.07;1.07;;;7.70;89.40;;;;;;5051737;28;20183;-69
2023/04/15 02:18:00;;;;;;;0.60;0.60;;;7.80;89.20;;;;;;5052648;28;20188;-69
2023/04/15 02:20:26;;;;;;;1.27;0.60;;;7.90;88.60;;;;;;5049677;28;20267;-70
2023/04/15 02:22:52;;;;;;;3.30;1.10;;;7.90;88.50;;;;;;5051576;28;20313;-69
2023/04/15 02:25:19;;;;;;;1.37;0.83;;;7.80;88.20;;;;;;5052992;28;20560;-69
2023/04/15 02:27:44;;;;;;;1.07;1.07;;;7.90;87.80;;;;;;5050226;28;20187;-69
2023/04/15 02:30:10;;;;;;;1.27;0.63;;;7.90;87.60;;;;;;5052465;28;20183;-69
2023/04/15 02:32:37;;;;;;;0.93;0.73;;;7.90;87.70;;;;;;5045877;28;20561;-69
2023/04/15 02:35:07;;;;;;;3.07;1.10;;;7.80;88.50;;;;;;5051658;28;20187;-69
2023/04/15 02:37:39;;;;;;;0.83;0.83;;;7.80;88.10;;;;;;5049302;28;20295;-69
2023/04/15 02:40:08;;;;;;;1.80;1.10;;;7.80;88.30;;;;;;5051861;28;20187;-70
2023/04/15 02:42:34;;;;;;;1.43;1.43;;;7.90;88.20;;;;;;5051446;28;20175;-70
2023/04/15 02:45:00;;;;;;;1.13;1.13;;;7.90;88.60;;;;;;5048566;28;20191;-70
2023/04/15 02:47:25;;;;;;;1.00;1.00;;;7.90;88.50;;;;;;5048876;28;20186;-70
2023/04/15 02:49:51;;;;;;;1.70;1.07;;;7.70;89.50;;;;;;5050926;28;20669;-70
2023/04/15 02:52:17;;;;;;;1.97;1.10;;;7.40;91.20;;;;;;5051895;28;20183;-70
2023/04/15 02:54:43;;;;;;;1.30;1.20;;;7.50;90.60;;;;;;5053161;28;20180;-69
2023/04/15 02:57:10;;;;;;;1.13;1.13;;;7.60;90.30;;;;;;5047121;28;20589;-70
2023/04/15 02:59:36;;;;;;;2.50;1.10;;;7.60;90.00;;;;;;5047050;28;20178;-70
2023/04/15 03:02:01;;;;;;;2.87;1.10;;;7.60;89.70;;;;;;5056810;28;20183;-69
2023/04/15 03:04:29;;;;;;;2.27;1.20;;;7.60;89.20;;;;;;5048379;28;20254;-69
2023/04/15 03:06:55;;;;;;;2.87;1.00;;;7.60;88.90;;;;;;5045293;28;20241;-69
2023/04/15 03:09:21;;;;;;;1.40;1.30;;;7.50;89.20;;;;;;5056542;28;20906;-70
2023/04/15 03:11:47;;;;;;;1.03;1.03;;;7.50;89.20;;;;;;5052406;28;20203;-69
2023/04/15 03:14:12;;;;;;;1.10;1.10;;;7.50;89.00;;;;;;5054124;28;20186;-69
2023/04/15 03:16:38;;;;;;;2.07;1.03;;;7.50;88.90;;;;;;5055065;28;20233;-69
2023/04/15 03:19:04;;;;;;;3.20;1.47;;;7.50;89.10;;;;;;5054654;28;20260;-69
2023/04/15 03:21:29;;;;;;;1.33;1.23;;;7.50;88.80;;;;;;5057296;28;20190;-69
2023/04/15 03:23:56;;;;;;;1.10;1.10;;;7.50;88.70;;;;;;5055721;28;20197;-69
2023/04/15 03:26:29;;;;;;;1.40;1.30;;;7.40;88.50;;;;;;5052401;28;20207;-69
2023/04/15 03:28:56;;;;;;;4.03;1.10;;;7.40;87.90;;;;;;5054118;28;20183;-69
2023/04/15 03:31:21;;;;;;;0.93;0.93;;;7.30;87.80;;;;;;5050946;28;20661;-69
2023/04/15 03:33:47;;;;;;;1.43;1.33;;;7.20;87.90;;;;;;5054168;28;20183;-70
2023/04/15 03:36:13;;;;;;;1.27;1.17;;;7.20;88.10;;;;;;5052761;28;20296;-69
2023/04/15 03:38:39;;;;;;;1.50;1.20;;;7.10;88.30;;;;;;5050098;28;20266;-69
2023/04/15 03:41:05;;;;;;;0.97;0.97;;;7.10;88.40;;;;;;5049194;28;20240;-70
2023/04/15 03:43:30;;;;;;;1.50;1.40;;;7.00;88.40;;;;;;5053184;28;20213;-70
2023/04/15 03:45:56;;;;;;;0.77;0.77;;;6.90;88.50;;;;;;5056900;28;20195;-70
2023/04/15 03:48:22;;;;;;;1.43;1.33;;;6.90;88.40;;;;;;5052186;28;20187;-69
2023/04/15 03:50:47;;;;;;;0.70;0.70;;;6.90;88.40;;;;;;5053420;28;20173;-69
2023/04/15 03:53:14;;;;;;;0.87;0.77;;;6.90;88.40;;;;;;5052638;28;20198;-70
2023/04/15 03:55:40;;;;;;;1.77;0.87;;;6.80;88.50;;;;;;5053685;28;20202;-69
2023/04/15 03:58:05;;;;;;;0.60;0.60;;;6.80;88.10;;;;;;5052585;28;20577;-71
2023/04/15 04:00:31;;;;;;;0.90;0.90;;;6.70;87.70;;;;;;5057293;28;20180;-69
2023/04/15 04:02:57;;;;;;;1.57;0.90;;;6.70;88.00;;;;;;5054622;28;20257;-69
2023/04/15 04:05:22;;;;;;;0.83;0.83;;;6.50;89.40;;;;;;5055113;28;20229;-69
2023/04/15 04:07:48;;;;;;;2.73;1.03;;;6.50;89.70;;;;;;5055513;28;20892;-69
2023/04/15 04:10:14;;;;;;;1.13;1.10;;;6.30;90.90;;;;;;5056611;28;20179;-69
2023/04/15 04:12:39;;;;;;;1.47;1.10;;;6.30;91.30;;;;;;5053762;28;20580;-69
2023/04/15 04:15:06;;;;;;;2.33;1.43;;;6.40;91.20;;;;;;5056554;28;20183;-69
2023/04/15 04:17:31;;;;;;;1.27;1.00;;;6.40;91.20;;;;;;5055695;28;20211;-69
2023/04/15 04:19:57;;;;;;;0.87;0.87;;;6.50;91.50;;;;;;5056736;28;20179;-69
2023/04/15 04:22:23;;;;;;;1.13;1.13;;;6.40;91.90;;;;;;5053986;28;20546;-72
2023/04/15 04:24:49;;;;;;;1.20;1.20;;;6.40;92.10;;;;;;5052911;28;20179;-71
2023/04/15 04:27:15;;;;;;;1.10;1.00;;;6.40;92.00;;;;;;5053631;28;20259;-71
2023/04/15 04:29:41;;;;;;;1.23;1.10;;;6.30;93.00;;;;;;5057205;28;20183;-71
2023/04/15 04:32:07;;;;;;;1.00;0.93;;;6.30;92.90;;;;;;5051863;28;20210;-70
2023/04/15 04:34:32;;;;;;;0.87;0.87;;;6.40;92.40;;;;;;5057723;28;20214;-70
2023/04/15 04:36:58;;;;;;;1.20;1.07;;;6.50;92.20;;;;;;5054152;28;20888;-71
2023/04/15 04:39:24;;;;;;;1.43;1.20;;;6.50;91.70;;;;;;5050731;28;20183;-71
2023/04/15 04:41:51;;;;;;;0.93;0.93;;;6.60;91.60;;;;;;5053337;28;20209;-70
2023/04/15 04:44:17;;;;;;;1.53;0.80;;;6.60;91.60;;;;;;5054179;28;20662;-71
2023/04/15 04:46:43;;;;;;;1.77;1.50;;;6.60;91.70;;;;;;5050932;28;20226;-71
2023/04/15 04:49:08;;;;;;;1.13;1.13;;;6.50;92.00;;;;;;5055871;28;20208;-71
2023/04/15 04:51:34;;;;;;;3.07;1.07;;;6.60;91.60;;;;;;5055753;28;20648;-70
2023/04/15 04:54:00;;;;;;;2.83;1.53;;;6.70;91.10;;;;;;5056229;28;20176;-70
2023/04/15 04:56:26;;;;;;;1.30;1.20;;;6.80;90.90;;;;;;5053333;28;20222;-70
2023/04/15 04:58:51;;;;;;;2.00;1.20;;;6.90;90.80;;;;;;5055314;28;20180;-71
2023/04/15 05:01:17;;;;;;;4.83;1.70;;;6.90;90.70;;;;;;5053743;28;20188;-70
2023/04/15 05:03:43;;;;;;;0.87;0.87;;;7.00;90.30;;;;;;5053698;28;20171;-70
2023/04/15 05:06:09;;;;;;;2.23;0.70;;;7.10;89.60;;;;;;5053135;28;20798;-70
2023/04/15 05:08:35;;;;;;;1.03;1.03;;;7.10;89.30;;;;;;5054627;28;20179;-70
2023/04/15 05:11:02;;;;;;;1.07;1.07;;;7.10;88.80;;;;;;5054074;28;20199;-70
2023/04/15 05:13:28;;;;;;;2.13;1.20;;;7.00;88.70;;;;;;5055070;28;20633;-69
2023/04/15 05:15:54;;;;;;;1.03;1.03;;;7.00;88.40;;;;;;5056524;28;20235;-69
2023/04/15 05:18:20;;;;;;;1.33;1.33;;;7.00;88.40;;;;;;5054216;28;20720;-70
2023/04/15 05:20:46;;;;;;;2.37;1.53;;;7.10;87.70;;;;;;5053406;28;20187;-70
2023/04/15 05:23:12;;;;;;;3.97;1.13;;;7.20;87.30;;;;;;5056483;28;20338;-70
2023/04/15 05:25:37;;;;;;;1.37;1.37;;;7.10;86.80;;;;;;5056296;28;20233;-71
2023/04/15 05:28:03;;;;;;;0.90;0.90;;;7.20;86.90;;;;;;5055410;28;20176;-71
2023/04/15 05:30:29;;;;;;;3.17;1.13;;;7.20;86.90;;;;;;5053188;28;20210;-72
2023/04/15 05:32:54;;;;;;;1.10;1.00;;;7.40;86.50;;;;;;5054407;28;20187;-69
2023/04/15 05:35:20;;;;;;;0.77;0.77;;;7.40;86.20;;;;;;5053007;28;20186;-69
2023/04/15 05:37:46;;;;;;;1.00;1.00;;;7.50;86.00;;;;;;5053943;28;20719;-69
2023/04/15 05:40:12;;;;;;;1.13;0.77;;;7.60;85.40;;;;;;5054319;28;20623;-69
2023/04/15 05:42:37;;;;;;;0.87;0.87;;;7.60;85.00;;;;;;5054743;28;20175;-69
2023/04/15 05:45:07;;;;;;;1.37;1.30;;;7.60;84.60;;;;;;5054693;28;20702;-70
2023/04/15 05:47:34;;;;;;;0.63;0.63;;;7.70;84.70;;;;;;5051825;28;20179;-70
2023/04/15 05:50:00;;;;;;;0.87;0.87;;;7.80;84.60;;;;;;5054151;28;20193;-69
2023/04/15 05:52:26;;;;;;;0.87;0.80;;;7.80;84.40;;;;;;5052957;28;20179;-70
2023/04/15 05:54:52;;;;;;;0.63;0.63;;;7.90;84.30;;;;;;5053172;28;20175;-70
2023/04/15 05:57:17;;;;;;;0.87;0.87;;;8.00;84.40;;;;;;5052417;28;20209;-70
2023/04/15 05:59:43;;;;;;;1.07;1.00;;;8.10;84.30;;;;;;5050867;28;20200;-70
2023/04/15 06:02:09;;;;;;;1.00;1.00;;;8.20;84.00;;;;;;5050992;28;20708;-70
2023/04/15 06:04:35;;;;;;;1.37;1.10;;;8.20;83.60;;;;;;5051146;28;20263;-70
2023/04/15 06:07:01;;;;;;;1.30;1.07;;;8.30;83.40;;;;;;5051714;28;20271;-70
2023/04/15 06:09:27;;;;;;;4.00;1.43;;;8.40;83.30;;;;;;5045818;28;20274;-71
2023/04/15 06:11:53;;;;;;;0.97;0.97;;;8.40;83.30;;;;;;5048164;28;20179;-71
2023/04/15 06:14:19;;;;;;;1.17;1.07;;;8.50;83.30;;;;;;5051789;28;20267;-69
2023/04/15 06:16:45;;;;;;;2.50;1.00;;;8.60;83.10;;;;;;5049904;28;20642;-70
2023/04/15 06:19:11;;;;;;;0.93;0.93;;;8.70;83.60;;;;;;5046875;28;20684;-70
2023/04/15 06:21:37;;;;;;;1.67;1.27;;;8.80;82.90;;;;;;5049523;28;20269;-70
2023/04/15 06:24:03;;;;;;;1.20;1.10;;;8.90;82.80;;;;;;5044650;28;20786;-71
2023/04/15 06:26:28;;;;;;;1.57;0.97;;;8.90;82.20;;;;;;5051765;28;20187;-69
2023/04/15 06:28:54;;;;;;;1.50;1.20;;;9.10;82.00;;;;;;5051666;28;21022;-69
2023/04/15 06:31:20;;;;;;;1.00;1.00;;;9.10;81.50;;;;;;5048816;28;20649;-69
2023/04/15 06:33:46;;;;;;;1.10;1.10;;;9.20;81.20;;;;;;5053063;28;20172;-70
2023/04/15 06:36:12;;;;;;;1.07;1.07;;;9.30;81.10;;;;;;5049201;28;20222;-69
2023/04/15 06:38:37;;;;;;;1.20;1.17;;;9.40;80.70;;;;;;5052667;28;20288;-69
2023/04/15 06:41:03;;;;;;;1.00;0.93;;;9.50;80.50;;;;;;5048184;28;20211;-70
2023/04/15 06:43:29;;;;;;;1.73;1.00;;;9.60;80.60;;;;;;5053119;28;20268;-69
2023/04/15 06:45:56;;;;;;;1.00;1.00;;;9.60;79.80;;;;;;5056256;28;20664;-69
2023/04/15 06:48:23;;;;;;;0.90;0.90;;;9.70;79.70;;;;;;5051399;28;20188;-69
2023/04/15 06:50:49;;;;;;;0.90;0.90;;;9.80;79.50;;;;;;5052441;28;20175;-69
2023/04/15 06:53:15;;;;;;;0.80;0.80;;;9.80;79.50;;;;;;5057284;28;20190;-69
2023/04/15 06:55:41;;;;;;;3.07;1.10;;;9.90;78.60;;;;;;5051355;28;20190;-71
2023/04/15 06:58:07;;;;;;;0.83;0.83;;;10.00;78.20;;;;;;5058394;28;20299;-71
2023/04/15 07:00:33;;;;;;;1.43;1.23;;;10.10;78.40;;;;;;5052870;28;20186;-69
2023/04/15 07:03:02;;;;;;;1.27;1.27;;;10.20;78.00;;;;;;5053021;28;20183;-69
2023/04/15 07:05:29;;;;;;;1.30;1.17;;;10.30;78.20;;;;;;5056462;28;20642;-69
2023/04/15 07:07:56;;;;;;;1.33;1.23;;;10.40;78.00;;;;;;5053313;28;20196;-69
2023/04/15 07:10:21;;;;;;;1.43;1.33;;;10.50;77.10;;;;;;5053149;28;20190;-71
2023/04/15 07:12:49;;;;;;;1.57;1.30;;;10.60;77.10;;;;;;5057824;28;21583;-69
2023/04/15 07:15:15;;;;;;;1.73;1.13;;;10.70;77.40;;;;;;5051628;28;20184;-69
2023/04/15 07:17:42;;;;;;;1.53;1.43;;;10.80;76.70;;;;;;5058463;28;20214;-69
2023/04/15 07:20:08;;;;;;;1.50;1.40;;;10.90;76.20;;;;;;5050226;28;20623;-69
2023/04/15 07:22:33;;;;;;;1.25;1.15;;;11.00;75.50;;;;;;5054934;28;20631;-70
2023/04/15 07:24:59;;;;;;;1.50;1.45;;;11.10;75.50;;;;;;5059901;28;20206;-70
2023/04/15 07:27:26;;;;;;;1.30;1.20;;;11.10;75.10;;;;;;5049872;28;20262;-70
2023/04/15 07:29:52;;;;;;;2.33;1.40;;;11.20;74.90;;;;;;5054937;28;20172;-70
2023/04/15 07:32:18;;;;;;;0.82;0.82;;;11.30;74.20;;;;;;5055513;28;20259;-73
2023/04/15 07:34:44;;;;;;;1.08;0.82;;;11.40;74.30;;;;;;5050650;28;20564;-71
2023/04/15 07:37:09;;;;;;;2.90;1.40;;;11.50;74.40;;;;;;5048482;28;20218;-71
2023/04/15 07:39:36;;;;;;;2.28;1.58;;;11.60;73.90;;;;;;5054087;28;20179;-70
2023/04/15 07:42:03;;;;;;;1.38;1.00;;;11.80;73.80;;;;;;5048204;28;20284;-72
2023/04/15 07:44:29;;;;;;;1.27;1.13;;;12.00;74.00;;;;;;5048744;28;20183;-71
2023/04/15 07:46:56;;;;;;;1.23;1.23;;;12.10;72.70;;;;;;5058736;28;20199;-71
2023/04/15 07:49:22;;;;;;;1.40;1.30;;;12.20;72.60;;;;;;5054074;28;20183;-70
2023/04/15 07:51:48;;;;;;;1.23;1.08;;;12.20;72.20;;;;;;5054724;28;20180;-69
2023/04/15 07:54:15;;;;;;;0.65;0.65;;;12.30;72.70;;;;;;5053904;28;20172;-69
2023/04/15 07:56:41;;;;;;;2.67;1.30;;;12.40;72.60;;;;;;5054448;28;20745;-69
2023/04/15 07:59:08;;;;;;;1.25;1.25;;;12.50;72.40;;;;;;5056391;28;20245;-73
2023/04/15 08:01:33;;;;;;;1.02;0.85;;;12.60;72.30;;;;;;5060399;28;20255;-69
2023/04/15 08:03:59;;;;;;;1.13;1.10;;;12.70;72.30;;;;;;5056902;28;20977;-69
2023/04/15 08:06:26;;;;;;;2.03;1.25;;;12.90;71.50;;;;;;5054794;28;20197;-69
2023/04/15 08:08:53;;;;;;;1.13;1.02;;;13.00;71.00;;;;;;5055415;28;20175;-69
2023/04/15 08:11:19;;;;;;;1.48;0.80;;;13.10;70.70;;;;;;5053213;28;20180;-69
2023/04/15 08:13:46;;;;;;;1.05;0.85;;;13.20;71.20;;;;;;5056458;28;20206;-70
2023/04/15 08:16:20;;;;;;;0.60;0.60;;;13.40;69.70;;;;;;5057244;28;20202;-69
2023/04/15 08:18:49;;;;;;;2.75;0.70;;;13.50;69.20;;;;;;5055911;28;20623;-70
2023/04/15 08:21:17;;;;;;;0.98;0.50;;;13.70;68.60;;;;;;5054631;28;20687;-72
2023/04/15 08:23:44;;;;;;;1.23;0.80;;;13.80;66.70;;;;;;5054787;28;20665;-71
2023/04/15 08:26:10;;;;;;;0.50;0.50;;;14.00;66.60;;;;;;5056620;28;20183;-70
2023/04/15 08:28:38;;;;;;;1.13;0.38;;;14.20;66.10;;;;;;5051118;28;20179;-72
2023/04/15 08:31:04;;;;;;;0.63;0.60;;;14.40;64.80;;;;;;5054230;28;20268;-71
2023/04/15 08:33:30;;;;;;;0.43;0.43;;;14.70;64.50;;;;;;5053942;28;20403;-71
2023/04/15 08:35:56;;;;;;;0.30;0.30;;;14.90;64.40;;;;;;5054264;28;20245;-71
2023/04/15 08:38:22;;;;;;;1.05;0.30;;;15.10;63.90;;;;;;5051302;28;20188;-76
2023/04/15 08:40:48;;;;;;;0.40;0.40;;;15.40;63.10;;;;;;5048115;28;20191;-72
2023/04/15 08:43:26;;;;;;;0.30;0.30;;;15.60;62.40;;;;;;5046878;28;20187;-71
2023/04/15 08:45:52;;;;;;;0.40;0.40;;;15.90;62.00;;;;;;5051420;28;20286;-72
2023/04/15 08:48:18;;;;;;;0.30;0.30;;;16.10;60.30;;;;;;5054246;28;20179;-71
2023/04/15 08:50:46;;;;;;;0.30;0.30;;;16.30;60.00;;;;;;5045937;28;20669;-72
2023/04/15 08:53:13;;;;;;;0.40;0.40;;;16.50;59.30;;;;;;5047042;28;20174;-72
2023/04/15 08:55:44;;;;;;;0.30;0.30;;;16.70;59.30;;;;;;5053282;28;20211;-72
2023/04/15 08:58:11;;;;;;;0.80;0.80;;;16.90;58.50;;;;;;5051334;28;20445;-72
2023/04/15 09:00:40;;;;;;;0.40;0.40;;;17.10;61.30;;;;;;5050297;28;20248;-72
2023/04/15 09:03:07;;;;;;;0.40;0.40;;;17.30;59.00;;;;;;5049716;28;20198;-70
2023/04/15 09:05:34;;;;;;;2.05;0.40;;;17.50;56.60;;;;;;5051623;28;20187;-70
2023/04/15 09:08:01;;;;;;;1.55;0.40;;;17.80;57.00;;;;;;5051956;28;20278;-70
2023/04/15 09:10:27;;;;;;;0.45;0.45;;;18.20;56.80;;;;;;5052698;28;20183;-71
2023/04/15 09:12:53;;;;;;;0.55;0.40;;;18.30;54.60;;;;;;5055407;28;20294;-70
2023/04/15 09:15:19;;;;;;;0.90;0.35;;;18.20;55.50;;;;;;5054279;28;20179;-70
2023/04/15 09:17:46;;;;;;;0.32;0.32;;;18.90;53.10;;;;;;5058896;28;20267;-70
2023/04/15 09:20:14;;;;;;;1.10;0.52;;;19.40;52.80;;;;;;5052781;28;20236;-71
2023/04/15 09:22:41;;;;;;;1.10;0.70;;;19.80;53.20;;;;;;5054829;28;20184;-70
2023/04/15 09:25:28;;;;;;;1.10;0.50;;;20.40;52.70;;;;;;5051620;28;20182;-70
2023/04/15 09:27:58;;;;;;;0.60;0.60;;;21.30;51.80;;;;;;5055208;28;20183;-69
2023/04/15 09:30:24;;;;;;;1.15;0.77;;;21.80;51.10;;;;;;5052753;28;20230;-69
2023/04/15 09:32:52;;;;;;;3.42;0.98;;;22.30;51.30;;;;;;5055260;28;20653;-70
2023/04/15 09:35:19;;;;;;;1.02;0.93;;;22.70;51.10;;;;;;5050436;28;20649;-70
2023/04/15 09:37:45;;;;;;;1.38;0.82;;;22.90;50.40;;;;;;5050982;28;20726;-70
2023/04/15 09:40:11;;;;;;;1.23;0.80;;;23.30;50.20;;;;;;5056194;28;20183;-70
2023/04/15 09:42:55;;;;;;;0.63;0.63;;;23.70;49.30;;;;;;5054755;28;20258;-70
2023/04/15 09:45:22;;;;;;;0.90;0.60;;;24.10;48.30;;;;;;5049694;28;20190;-71
2023/04/15 09:47:50;;;;;;;1.38;0.75;;;24.30;48.00;;;;;;5056363;28;20187;-70
2023/04/15 09:50:15;;;;;;;2.90;0.80;;;24.50;47.80;;;;;;5054539;28;20648;-70
2023/04/15 09:52:42;;;;;;;1.17;0.70;;;24.70;47.40;;;;;;5053656;28;20261;-69
2023/04/15 09:55:08;;;;;;;0.70;0.70;;;24.70;46.80;;;;;;5055513;28;20183;-70
2023/04/15 09:57:36;;;;;;;1.42;0.50;;;24.80;47.20;;;;;;5054350;28;20222;-71
2023/04/15 10:00:04;;;;;;;0.40;0.40;;;24.30;46.40;;;;;;5053739;28;20651;-70
2023/04/15 10:02:30;;;;;;;0.50;0.40;;;23.70;47.00;;;;;;5052977;28;20180;-69
2023/04/15 10:04:57;;;;;;;0.60;0.60;;;23.30;47.90;;;;;;5055319;28;20201;-71
2023/04/15 10:07:24;;;;;;;2.78;0.60;;;23.30;47.00;;;;;;5053942;28;20684;-70
2023/04/15 10:09:50;;;;;;;0.65;0.45;;;23.20;49.00;;;;;;5056076;28;20171;-70
2023/04/15 10:12:17;;;;;;;0.20;0.20;;;22.90;47.40;;;;;;5053091;28;20179;-70
2023/04/15 10:14:47;;;;;;;0.40;0.20;;;22.10;45.70;;;;;;5053087;28;20184;-71
2023/04/15 10:17:16;;;;;;;0.15;0.10;;;22.10;44.20;;;;;;5054133;28;20215;-70
2023/04/15 10:19:42;;;;;;;1.83;0.20;;;22.20;43.30;;;;;;5057833;28;20182;-70
2023/04/15 10:22:08;;;;;;;0.40;0.40;;;22.30;44.90;;;;;;5059577;28;20183;-70
2023/04/15 10:24:34;;;;;;;0.45;0.40;;;22.30;48.10;;;;;;5054122;28;20233;-70
2023/04/15 10:27:01;;;;;;;0.73;0.20;;;22.70;47.30;;;;;;5056721;28;20653;-70
2023/04/15 10:29:26;;;;;;;0.98;0.20;;;23.20;43.60;;;;;;5058128;28;20320;-70
2023/04/15 10:31:57;;;;;;;0.13;0.13;;;23.90;43.00;;;;;;5054275;28;20266;-70
2023/04/15 10:34:24;;;;;;;1.70;0.20;;;24.00;40.90;;;;;;5058159;28;20187;-69
2023/04/15 10:36:50;;;;;;;0.20;0.20;;;23.70;42.00;;;;;;5056730;28;20260;-69
2023/04/15 10:39:35;;;;;;;0.10;0.10;;;23.50;42.00;;;;;;5056276;28;20714;-70
2023/04/15 10:42:15;;;;;;;0.40;0.10;;;23.20;41.50;;;;;;5058535;28;20225;-70
2023/04/15 10:44:42;;;;;;;0.20;0.20;;;23.50;41.90;;;;;;5059518;28;20193;-70
2023/04/15 10:47:12;;;;;;;0.50;0.20;;;23.60;41.90;;;;;;5056812;28;20586;-70
2023/04/15 10:49:49;;;;;;;0.60;0.32;;;23.60;42.30;;;;;;5057959;28;20179;-70
2023/04/15 10:52:17;;;;;;;0.57;0.20;;;23.50;42.20;;;;;;5060164;28;20743;-70
2023/04/15 10:54:42;;;;;;;0.20;0.20;;;23.50;42.50;;;;;;5053784;28;20191;-70
2023/04/15 10:57:36;;;;;;;0.20;0.20;;;23.50;42.90;;;;;;5058519;28;20605;-69
2023/04/15 11:00:15;;;;;;;0.15;0.15;;;23.70;42.70;;;;;;5051583;28;20199;-70
2023/04/15 11:02:55;;;;;;;0.20;0.20;;;23.80;40.80;;;;;;5053285;28;20198;-69
2023/04/15 11:05:50;;;;;;;0.20;0.20;;;23.30;41.10;;;;;;5057814;28;20589;-69
2023/04/15 11:08:16;;;;;;;0.85;0.30;;;23.60;41.50;;;;;;5051169;28;20184;-70
2023/04/15 11:10:41;;;;;;;0.10;0.10;;;23.40;41.10;;;;;;5059407;28;20187;-70
2023/04/15 11:13:10;;;;;;;0.30;0.30;;;23.60;41.50;;;;;;5037397;28;20207;-70
2023/04/15 11:15:39;;;;;;;0.50;0.10;;;23.20;41.40;;;;;;5057384;28;20188;-70
2023/04/15 11:18:11;;;;;;;0.17;0.17;;;22.60;41.70;;;;;;5041530;28;20224;-71
2023/04/15 11:20:39;;;;;;;0.10;0.10;;;22.00;41.60;;;;;;5057333;28;20760;-71
2023/04/15 11:23:05;;;;;;;0.38;0.20;;;22.00;41.00;;;;;;5054830;28;20218;-70
2023/04/15 11:25:32;;;;;;;0.10;0.10;;;22.20;42.20;;;;;;5051819;28;20249;-70
2023/04/15 11:28:00;;;;;;;0.17;0.17;;;21.90;41.00;;;;;;5052892;28;20192;-71
2023/04/15 11:30:27;;;;;;;0.13;0.10;;;22.00;42.40;;;;;;5052180;28;20611;-70
2023/04/15 11:32:56;;;;;;;0.10;0.10;;;21.90;43.10;;;;;;5057141;28;20211;-71
2023/04/15 11:35:22;;;;;;;0.40;0.10;;;21.90;43.00;;;;;;5053204;28;20617;-70
2023/04/15 11:37:49;;;;;;;0.30;0.20;;;22.10;42.60;;;;;;5053469;28;20226;-71
2023/04/15 11:40:16;;;;;;;0.70;0.30;;;21.70;42.70;;;;;;5055128;28;21117;-71
2023/04/15 11:42:43;;;;;;;0.70;0.20;;;21.60;43.20;;;;;;5052988;28;20391;-70
2023/04/15 11:45:14;;;;;;;0.68;0.30;;;21.90;43.40;;;;;;5053313;28;20690;-70
2023/04/15 11:47:41;;;;;;;0.88;0.30;;;21.80;43.70;;;;;;5054660;28;20257;-70
2023/04/15 11:50:17;;;;;;;0.82;0.25;;;21.90;45.00;;;;;;5051222;28;20183;-72
2023/04/15 11:52:56;;;;;;;0.32;0.32;;;22.20;44.10;;;;;;5056069;28;20228;-70
2023/04/15 11:55:26;;;;;;;0.20;0.20;;;22.10;45.20;;;;;;5055961;28;20191;-71
2023/04/15 11:58:20;;;;;;;0.20;0.20;;;21.50;43.10;;;;;;5053014;28;20782;-70
2023/04/15 12:00:58;;;;;;;0.20;0.20;;;21.30;44.20;;;;;;5054269;28;20734;-70
2023/04/15 12:03:28;;;;;;;1.00;0.38;;;21.50;45.30;;;;;;5052727;28;20653;-71
2023/04/15 12:06:07;;;;;;;0.30;0.30;;;21.60;45.30;;;;;;5051915;28;20191;-70
2023/04/15 12:08:52;;;;;;;0.30;0.30;;;21.50;45.70;;;;;;5046131;28;20761;-69
2023/04/15 12:11:33;;;;;;;0.15;0.15;;;21.70;44.20;;;;;;5053010;28;20182;-71
2023/04/15 12:14:04;;;;;;;0.85;0.17;;;22.10;45.50;;;;;;5050962;28;20199;-71
2023/04/15 12:16:29;;;;;;;0.30;0.30;;;22.50;43.70;;;;;;5049715;28;20242;-70
2023/04/15 12:19:00;;;;;;;0.28;0.28;;;22.30;42.90;;;;;;5050015;28;20222;-69
2023/04/15 12:21:28;;;;;;;2.22;0.30;;;22.00;43.30;;;;;;5055231;28;20707;-71
2023/04/15 12:24:00;;;;;;;0.30;0.30;;;21.90;43.50;;;;;;5051665;28;20183;-71
2023/04/15 12:26:30;;;;;;;0.45;0.20;;;21.60;43.20;;;;;;5050514;28;20187;-73
2023/04/15 12:29:03;;;;;;;0.20;0.20;;;21.50;43.50;;;;;;5051894;28;20669;-71
2023/04/15 12:31:29;;;;;;;0.25;0.25;;;21.80;43.60;;;;;;5049668;28;20268;-72
2023/04/15 12:33:56;;;;;;;0.13;0.13;;;21.70;44.20;;;;;;5050838;28;20266;-71
2023/04/15 12:36:22;;;;;;;0.20;0.20;;;21.50;43.90;;;;;;5057282;28;20302;-70
2023/04/15 12:38:48;;;;;;;0.55;0.20;;;21.30;43.80;;;;;;5050764;28;20176;-72
2023/04/15 12:41:15;;;;;;;0.15;0.15;;;21.20;43.70;;;;;;5048532;28;20184;-71
2023/04/15 12:43:43;;;;;;;0.17;0.17;;;21.20;44.80;;;;;;5051266;28;20199;-70
2023/04/15 12:46:09;;;;;;;0.30;0.30;;;21.60;44.60;;;;;;5049193;28;20183;-71
2023/04/15 12:48:35;;;;;;;0.17;0.17;;;21.70;44.20;;;;;;5047821;28;20262;-71
2023/04/15 12:51:01;;;;;;;0.17;0.15;;;21.60;43.20;;;;;;5054438;28;20258;-71
2023/04/15 12:53:27;;;;;;;0.20;0.20;;;21.30;44.00;;;;;;5049686;28;20190;-72